createdAt,value
2018-09-14T00:02:18.726Z,99.90
2018-09-14T00:04:45.011Z,99.90
2018-09-14T00:07:11.248Z,99.90
2018-09-14T00:09:37.518Z,99.90
2018-09-14T00:12:03.843Z,99.90
2018-09-14T00:14:30.120Z,99.90
2018-09-14T00:16:56.381Z,99.90
2018-09-14T00:19:22.693Z,99.90
2018-09-14T00:21:48.959Z,99.90
2018-09-14T00:24:15.262Z,99.90
2018-09-14T00:26:41.517Z,99.90
2018-09-14T00:29:07.821Z,99.90
2018-09-14T00:31:34.125Z,99.90
2018-09-14T00:34:00.431Z,99.90
2018-09-14T00:36:27.421Z,99.90
2018-09-14T00:38:53.725Z,99.90
2018-09-14T00:41:20.727Z,99.90
2018-09-14T00:43:46.968Z,99.90
2018-09-14T00:46:13.283Z,99.90
2018-09-14T00:48:39.577Z,99.90
2018-09-14T00:53:39.008Z,99.90
2018-09-14T00:56:05.313Z,99.90
2018-09-14T00:58:32.337Z,99.90
2018-09-14T01:00:58.601Z,99.90
2018-09-14T01:03:25.643Z,99.90
2018-09-14T01:05:52.633Z,99.90
2018-09-14T01:08:18.928Z,99.90
2018-09-14T01:10:45.246Z,99.90
2018-09-14T01:13:11.501Z,99.90
2018-09-14T01:15:37.748Z,99.90
2018-09-14T01:18:04.057Z,99.90
2018-09-14T01:20:30.313Z,99.90
2018-09-14T01:22:56.581Z,99.90
2018-09-14T01:25:22.830Z,99.90
2018-09-14T01:27:49.874Z,99.90
2018-09-14T01:30:16.936Z,99.90
2018-09-14T01:32:43.220Z,99.90
2018-09-14T01:35:09.528Z,99.90
2018-09-14T01:37:35.775Z,99.90
2018-09-14T01:40:02.074Z,99.90
2018-09-14T01:42:28.329Z,99.90
2018-09-14T01:44:54.609Z,99.90
2018-09-14T01:47:21.597Z,99.90
2018-09-14T01:49:47.876Z,99.90
2018-09-14T01:52:14.157Z,99.90
2018-09-14T01:54:40.401Z,99.90
2018-09-14T01:57:06.690Z,99.90
2018-09-14T01:59:33.718Z,99.90
2018-09-14T02:01:59.987Z,99.90
2018-09-14T02:04:26.258Z,99.90
2018-09-14T02:06:52.518Z,99.90
2018-09-14T02:09:19.498Z,99.90
2018-09-14T02:11:45.782Z,99.90
2018-09-14T02:14:12.022Z,99.90
2018-09-14T02:16:39.029Z,99.90
2018-09-14T02:19:05.329Z,99.90
2018-09-14T02:21:31.593Z,99.90
2018-09-14T02:23:57.870Z,99.90
2018-09-14T02:26:24.868Z,99.90
2018-09-14T02:28:51.144Z,99.90
2018-09-14T02:31:18.172Z,99.90
2018-09-14T02:33:44.455Z,99.90
2018-09-14T02:36:10.691Z,99.90
2018-09-14T02:38:36.977Z,99.90
2018-09-14T02:41:03.981Z,99.90
2018-09-14T02:43:30.254Z,99.90
2018-09-14T02:45:57.243Z,99.90
2018-09-14T02:48:23.536Z,99.90
2018-09-14T02:50:50.536Z,99.90
2018-09-14T02:53:16.796Z,99.90
2018-09-14T02:55:43.093Z,99.90
2018-09-14T02:58:09.351Z,99.90
2018-09-14T03:00:35.642Z,99.90
2018-09-14T03:03:01.894Z,99.90
2018-09-14T03:05:28.138Z,99.90
2018-09-14T03:07:54.405Z,99.90
2018-09-14T03:10:21.426Z,99.90
2018-09-14T03:12:47.697Z,99.90
2018-09-14T03:15:13.978Z,99.90
2018-09-14T03:17:40.270Z,99.90
2018-09-14T03:20:06.564Z,99.90
2018-09-14T03:22:33.541Z,99.90
2018-09-14T03:24:59.821Z,99.90
2018-09-14T03:27:26.062Z,99.90
2018-09-14T03:29:52.306Z,99.90
2018-09-14T03:32:18.641Z,99.90
2018-09-14T03:34:44.922Z,99.90
2018-09-14T03:37:11.174Z,99.90
2018-09-14T03:39:37.453Z,99.90
2018-09-14T03:42:04.466Z,99.90
2018-09-14T03:44:30.791Z,99.90
2018-09-14T03:46:57.045Z,99.90
2018-09-14T03:49:24.067Z,99.90
2018-09-14T03:51:50.310Z,99.90
2018-09-14T03:54:16.581Z,99.90
2018-09-14T03:56:42.860Z,99.90
2018-09-14T03:59:09.125Z,99.90
2018-09-14T04:01:35.374Z,99.90
2018-09-14T04:04:01.638Z,99.90
2018-09-14T04:06:28.324Z,99.90
2018-09-14T04:08:54.622Z,99.90
2018-09-14T04:11:20.890Z,99.90
2018-09-14T04:13:47.156Z,99.90
2018-09-14T04:16:13.433Z,99.90
2018-09-14T04:18:39.699Z,99.90
2018-09-14T04:21:07.578Z,99.90
2018-09-14T04:23:33.968Z,99.90
2018-09-14T04:26:00.875Z,99.90
2018-09-14T04:28:27.236Z,99.90
2018-09-14T04:30:54.256Z,99.90
2018-09-14T04:33:20.525Z,99.90
2018-09-14T04:35:47.547Z,99.90
2018-09-14T04:38:13.891Z,99.90
2018-09-14T04:40:40.167Z,99.90
2018-09-14T04:43:06.435Z,99.90
2018-09-14T04:45:34.528Z,99.90
2018-09-14T04:48:01.589Z,99.90
2018-09-14T04:50:28.573Z,99.90
2018-09-14T04:52:54.835Z,99.90
2018-09-14T04:55:21.143Z,99.90
2018-09-14T04:57:47.979Z,99.90
2018-09-14T05:00:15.399Z,99.90
2018-09-14T05:02:42.391Z,99.90
2018-09-14T05:05:08.664Z,99.90
2018-09-14T05:07:34.933Z,99.90
2018-09-14T05:10:01.206Z,99.90
2018-09-14T05:12:27.448Z,99.90
2018-09-14T05:14:53.728Z,99.90
2018-09-14T05:17:19.981Z,99.90
2018-09-14T05:19:46.270Z,99.90
2018-09-14T05:22:12.512Z,99.90
2018-09-14T05:24:38.835Z,99.90
2018-09-14T05:27:05.060Z,99.90
2018-09-14T05:29:31.346Z,99.90
2018-09-14T05:31:57.645Z,99.90
2018-09-14T05:34:23.885Z,99.90
2018-09-14T05:36:50.146Z,99.90
2018-09-14T05:39:16.395Z,99.90
2018-09-14T05:41:43.457Z,99.90
2018-09-14T05:44:09.699Z,99.90
2018-09-14T05:46:35.952Z,99.90
2018-09-14T05:49:02.469Z,99.90
2018-09-14T05:51:28.715Z,99.90
2018-09-14T05:53:54.950Z,99.90
2018-09-14T05:56:21.220Z,99.90
2018-09-14T05:58:47.504Z,99.90
2018-09-14T06:01:13.785Z,99.90
2018-09-14T06:03:40.021Z,99.90
2018-09-14T06:06:07.039Z,99.90
2018-09-14T06:08:33.326Z,99.90
2018-09-14T06:10:59.600Z,99.90
2018-09-14T06:13:25.870Z,99.90
2018-09-14T06:15:52.107Z,99.90
2018-09-14T06:18:18.357Z,99.90
2018-09-14T06:20:44.630Z,99.90
2018-09-14T06:23:10.882Z,99.90
2018-09-14T06:25:37.954Z,99.90
2018-09-14T06:28:04.201Z,99.90
2018-09-14T06:30:30.508Z,99.90
2018-09-14T06:32:56.794Z,99.90
2018-09-14T06:35:23.069Z,99.90
2018-09-14T06:37:49.302Z,99.90
2018-09-14T06:40:15.585Z,99.90
2018-09-14T06:42:41.860Z,99.90
2018-09-14T06:45:08.244Z,99.90
2018-09-14T06:47:34.521Z,99.90
2018-09-14T06:50:00.761Z,99.90
2018-09-14T06:52:27.039Z,99.90
2018-09-14T06:54:53.297Z,99.90
2018-09-14T06:57:20.334Z,99.90
2018-09-14T06:59:46.623Z,99.90
2018-09-14T07:02:12.860Z,99.90
2018-09-14T07:04:39.122Z,99.90
2018-09-14T07:07:05.382Z,99.90
2018-09-14T07:09:31.672Z,99.90
2018-09-14T07:11:57.925Z,99.90
2018-09-14T07:14:24.946Z,99.90
2018-09-14T07:16:51.190Z,99.90
2018-09-14T07:19:17.452Z,99.90
2018-09-14T07:21:43.758Z,99.90
2018-09-14T07:24:10.002Z,99.90
2018-09-14T07:26:37.034Z,99.90
2018-09-14T07:29:03.287Z,99.90
2018-09-14T07:31:30.369Z,99.90
2018-09-14T07:33:57.338Z,99.90
2018-09-14T07:36:23.651Z,99.90
2018-09-14T07:38:49.880Z,99.90
2018-09-14T07:41:16.161Z,99.90
2018-09-14T07:43:43.178Z,99.90
2018-09-14T07:46:09.437Z,99.90
2018-09-14T07:48:35.792Z,99.90
2018-09-14T07:51:02.102Z,99.90
2018-09-14T07:53:29.130Z,99.90
2018-09-14T07:55:55.412Z,99.90
2018-09-14T07:58:21.689Z,99.90
2018-09-14T08:00:53.174Z,99.90
2018-09-14T08:03:19.945Z,99.90
2018-09-14T08:05:47.157Z,99.90
2018-09-14T08:08:13.645Z,99.90
2018-09-14T08:11:01.618Z,99.90
2018-09-14T08:13:31.842Z,99.90
2018-09-14T08:18:38.509Z,99.90
2018-09-14T08:21:04.846Z,99.90
2018-09-14T08:23:32.841Z,99.90
2018-09-14T08:25:59.166Z,99.90
2018-09-14T08:28:25.439Z,99.90
2018-09-14T08:30:51.730Z,99.90
2018-09-14T08:33:18.025Z,99.90
2018-09-14T08:35:44.347Z,99.90
2018-09-14T08:38:10.600Z,99.90
2018-09-14T08:40:36.914Z,99.90
2018-09-14T08:43:04.207Z,99.90
2018-09-14T08:45:31.038Z,99.90
2018-09-14T08:47:58.179Z,99.90
2018-09-14T08:50:24.910Z,99.90
2018-09-14T08:52:53.368Z,99.90
2018-09-14T08:55:19.725Z,99.90
2018-09-14T08:57:46.182Z,99.90
2018-09-14T09:00:12.604Z,99.90
2018-09-14T09:02:40.400Z,99.90
2018-09-14T09:05:09.781Z,99.90
2018-09-14T09:07:37.132Z,99.90
2018-09-14T09:10:07.234Z,99.90
2018-09-14T09:12:35.349Z,99.90
2018-09-14T09:15:02.833Z,99.90
2018-09-14T09:17:29.274Z,99.90
2018-09-14T09:19:55.582Z,99.90
2018-09-14T09:22:22.652Z,99.90
2018-09-14T09:24:48.963Z,99.90
2018-09-14T09:27:15.959Z,98.10
2018-09-14T09:29:42.257Z,98.20
2018-09-14T09:32:09.204Z,99.40
2018-09-14T09:34:36.639Z,99.00
2018-09-14T09:37:03.774Z,98.10
2018-09-14T09:39:33.364Z,98.10
2018-09-14T09:42:00.949Z,99.30
2018-09-14T09:44:27.565Z,99.90
2018-09-14T09:46:55.796Z,99.90
2018-09-14T09:49:24.216Z,99.90
2018-09-14T09:51:55.152Z,99.90
2018-09-14T09:54:39.897Z,99.90
2018-09-14T09:57:07.337Z,99.90
2018-09-14T09:59:33.897Z,99.90
2018-09-14T10:02:00.289Z,99.90
2018-09-14T10:04:26.583Z,99.90
2018-09-14T10:06:52.874Z,99.90
2018-09-14T10:09:19.166Z,99.90
2018-09-14T10:11:45.466Z,99.90
2018-09-14T10:14:11.782Z,99.90
2018-09-14T10:16:38.089Z,99.90
2018-09-14T10:19:04.487Z,99.90
2018-09-14T10:21:33.972Z,99.90
2018-09-14T10:24:00.215Z,99.90
2018-09-14T10:26:26.494Z,99.90
2018-09-14T10:28:52.863Z,99.90
2018-09-14T10:31:19.138Z,99.90
2018-09-14T10:33:46.200Z,99.90
2018-09-14T10:36:13.252Z,99.90
2018-09-14T10:38:40.542Z,99.90
2018-09-14T10:41:07.509Z,99.90
2018-09-14T10:43:33.825Z,99.90
2018-09-14T10:46:00.140Z,99.90
2018-09-14T10:48:27.261Z,99.90
2018-09-14T10:50:53.873Z,99.90
2018-09-14T10:53:20.199Z,99.90
2018-09-14T10:55:47.482Z,99.90
2018-09-14T10:58:13.920Z,99.90
2018-09-14T11:00:41.635Z,99.90
2018-09-14T11:03:08.406Z,99.90
2018-09-14T11:05:34.698Z,99.90
2018-09-14T11:08:00.960Z,99.90
2018-09-14T11:10:27.298Z,99.90
2018-09-14T11:12:54.062Z,99.90
2018-09-14T11:15:20.367Z,99.90
2018-09-14T11:17:46.757Z,99.90
2018-09-14T11:20:13.075Z,99.90
2018-09-14T11:22:39.939Z,99.90
2018-09-14T11:25:07.044Z,99.90
2018-09-14T11:27:34.005Z,99.90
2018-09-14T11:30:00.340Z,99.90
2018-09-14T11:32:27.414Z,99.90
2018-09-14T11:34:53.662Z,99.90
2018-09-14T11:37:20.045Z,99.90
2018-09-14T11:39:47.108Z,99.90
2018-09-14T11:42:13.419Z,99.90
2018-09-14T11:44:40.312Z,99.90
2018-09-14T11:47:06.610Z,99.90
2018-09-14T11:49:33.635Z,99.90
2018-09-14T11:51:59.980Z,99.90
2018-09-14T11:54:26.403Z,99.90
2018-09-14T11:56:52.582Z,99.90
2018-09-14T11:59:18.941Z,99.90
2018-09-14T12:01:45.249Z,99.90
2018-09-14T12:04:11.551Z,99.90
2018-09-14T12:06:38.534Z,99.90
2018-09-14T12:09:04.841Z,99.90
2018-09-14T12:11:31.148Z,99.90
2018-09-14T12:13:57.501Z,99.90
2018-09-14T12:16:24.525Z,99.90
2018-09-14T12:18:51.564Z,99.90
2018-09-14T12:21:18.574Z,99.90
2018-09-14T12:23:45.403Z,99.90
2018-09-14T12:26:11.668Z,99.90
2018-09-14T12:28:37.946Z,99.90
2018-09-14T12:31:04.227Z,99.90
2018-09-14T12:33:30.546Z,99.90
2018-09-14T12:35:56.812Z,99.90
2018-09-14T12:38:23.865Z,99.90
2018-09-14T12:40:50.147Z,99.90
2018-09-14T12:43:16.431Z,99.90
2018-09-14T12:45:43.441Z,99.90
2018-09-14T12:48:09.743Z,99.90
2018-09-14T12:50:35.998Z,99.90
2018-09-14T12:53:02.293Z,99.90
2018-09-14T12:55:28.617Z,99.90
2018-09-14T12:57:54.918Z,99.90
2018-09-14T13:00:21.926Z,99.90
2018-09-14T13:02:48.220Z,99.90
2018-09-14T13:05:14.550Z,99.90
2018-09-14T13:07:40.813Z,99.90
2018-09-14T13:10:07.115Z,99.90
2018-09-14T13:12:33.373Z,99.90
2018-09-14T13:14:59.702Z,99.90
2018-09-14T13:17:25.956Z,99.90
2018-09-14T13:19:52.246Z,99.90
2018-09-14T13:22:18.501Z,99.90
2018-09-14T13:24:44.797Z,99.90
2018-09-14T13:27:11.808Z,99.90
2018-09-14T13:29:38.061Z,99.90
2018-09-14T13:32:05.130Z,99.90
2018-09-14T13:34:31.370Z,99.90
2018-09-14T13:36:57.676Z,99.90
2018-09-14T13:39:24.721Z,99.90
2018-09-14T13:41:51.743Z,99.90
2018-09-14T13:44:18.074Z,99.90
2018-09-14T13:46:44.396Z,99.90
2018-09-14T13:49:11.607Z,99.90
2018-09-14T13:51:37.920Z,99.90
2018-09-14T13:54:04.967Z,99.90
2018-09-14T13:56:31.291Z,99.90
2018-09-14T13:58:57.597Z,99.90
2018-09-14T14:01:23.936Z,99.90
2018-09-14T14:03:50.156Z,99.90
2018-09-14T14:06:16.531Z,99.90
2018-09-14T14:08:42.851Z,99.90
2018-09-14T14:11:10.021Z,99.90
2018-09-14T14:13:36.389Z,99.90
2018-09-14T14:16:03.548Z,99.80
2018-09-14T14:18:29.946Z,99.90
2018-09-14T14:20:59.325Z,99.90
2018-09-14T14:23:26.856Z,99.90
2018-09-14T14:25:59.244Z,99.90
2018-09-14T14:28:27.031Z,99.90
2018-09-14T14:30:55.003Z,99.90
2018-09-14T14:33:21.427Z,99.90
2018-09-14T14:35:49.169Z,99.90
2018-09-14T14:38:15.638Z,99.90
2018-09-14T14:40:42.500Z,99.90
2018-09-14T14:43:08.977Z,99.90
2018-09-14T14:45:35.281Z,99.90
2018-09-14T14:48:02.654Z,99.80
2018-09-14T14:50:31.007Z,99.60
2018-09-14T14:52:59.203Z,99.90
2018-09-14T14:55:25.564Z,99.90
2018-09-14T14:57:54.997Z,99.90
2018-09-14T15:00:26.604Z,99.90
2018-09-14T15:02:53.280Z,99.90
2018-09-14T15:05:19.741Z,99.50
2018-09-14T15:07:51.250Z,99.90
2018-09-14T15:10:17.574Z,99.60
2018-09-14T15:12:44.402Z,99.90
2018-09-14T15:15:11.341Z,99.50
2018-09-14T15:17:39.554Z,99.80
2018-09-14T15:20:06.587Z,99.60
2018-09-14T15:22:32.886Z,99.90
2018-09-14T15:24:59.148Z,99.50
2018-09-14T15:27:25.378Z,99.60
2018-09-14T15:29:51.636Z,99.90
2018-09-14T15:32:18.613Z,99.90
2018-09-14T15:34:45.936Z,99.90
2018-09-14T15:37:12.242Z,99.90
2018-09-14T15:39:38.497Z,99.90
2018-09-14T15:42:05.518Z,99.90
2018-09-14T15:44:32.281Z,99.90
2018-09-14T15:46:58.630Z,99.90
2018-09-14T15:49:25.700Z,99.90
2018-09-14T15:51:51.957Z,99.90
2018-09-14T15:54:19.479Z,99.90
2018-09-14T15:56:46.081Z,99.90
2018-09-14T15:59:12.394Z,99.90
2018-09-14T16:01:50.938Z,99.90
2018-09-14T16:04:17.961Z,99.90
2018-09-14T16:06:44.750Z,99.90
2018-09-14T16:09:11.073Z,99.90
2018-09-14T16:11:38.297Z,99.90
2018-09-14T16:14:04.612Z,99.90
2018-09-14T16:16:31.066Z,99.90
2018-09-14T16:18:57.308Z,99.90
2018-09-14T16:21:23.560Z,99.90
2018-09-14T16:23:50.598Z,99.90
2018-09-14T16:26:17.674Z,99.90
2018-09-14T16:28:44.737Z,99.90
2018-09-14T16:31:11.047Z,99.90
2018-09-14T16:33:37.588Z,99.90
2018-09-14T16:36:03.902Z,99.90
2018-09-14T16:38:30.951Z,99.90
2018-09-14T16:40:57.992Z,99.90
2018-09-14T16:43:25.306Z,99.90
2018-09-14T16:45:51.629Z,99.90
2018-09-14T16:48:17.902Z,99.90
2018-09-14T16:50:45.221Z,99.90
2018-09-14T16:53:12.292Z,99.90
2018-09-14T16:55:40.015Z,99.90
2018-09-14T16:58:07.696Z,99.90
2018-09-14T17:00:34.941Z,99.90
2018-09-14T17:03:01.799Z,99.90
2018-09-14T17:05:28.223Z,99.90
2018-09-14T17:07:54.484Z,99.90
2018-09-14T17:10:21.092Z,99.90
2018-09-14T17:12:47.420Z,99.90
2018-09-14T17:15:15.496Z,99.90
2018-09-14T17:17:45.587Z,99.90
2018-09-14T17:20:12.813Z,99.90
2018-09-14T17:22:40.639Z,99.90
2018-09-14T17:25:08.331Z,99.90
2018-09-14T17:27:35.804Z,99.90
2018-09-14T17:30:02.114Z,99.90
2018-09-14T17:32:29.174Z,99.90
2018-09-14T17:34:56.344Z,99.90
2018-09-14T17:37:23.972Z,99.90
2018-09-14T17:39:51.630Z,99.90
2018-09-14T17:42:19.674Z,99.90
2018-09-14T17:44:46.428Z,99.90
2018-09-14T17:47:13.551Z,99.90
2018-09-14T17:49:41.080Z,99.90
2018-09-14T17:52:09.357Z,99.90
2018-09-14T17:54:37.395Z,99.90
2018-09-14T17:57:03.703Z,99.90
2018-09-14T17:59:30.797Z,99.90
2018-09-14T18:01:58.210Z,99.90
2018-09-14T18:04:25.300Z,99.90
2018-09-14T18:06:51.591Z,99.90
2018-09-14T18:09:18.404Z,99.90
2018-09-14T18:11:44.722Z,99.90
2018-09-14T18:14:11.509Z,99.90
2018-09-14T18:16:37.827Z,99.90
2018-09-14T18:19:04.215Z,99.90
2018-09-14T18:21:32.630Z,99.90
2018-09-14T18:23:59.718Z,99.90
2018-09-14T18:26:26.110Z,99.90
2018-09-14T18:28:53.443Z,99.90
2018-09-14T18:31:20.630Z,99.90
2018-09-14T18:33:46.929Z,99.90
2018-09-14T18:36:13.301Z,99.90
2018-09-14T18:38:39.851Z,99.90
2018-09-14T18:41:06.102Z,99.90
2018-09-14T18:43:33.809Z,99.90
2018-09-14T18:46:00.343Z,99.90
2018-09-14T18:48:26.888Z,99.90
2018-09-14T18:50:53.194Z,99.90
2018-09-14T18:53:19.473Z,99.90
2018-09-14T18:55:46.338Z,99.90
2018-09-14T18:58:12.629Z,99.90
2018-09-14T19:00:38.903Z,99.90
2018-09-14T19:03:05.258Z,99.90
2018-09-14T19:05:31.552Z,99.90
2018-09-14T19:07:57.849Z,99.90
2018-09-14T19:10:25.236Z,99.90
2018-09-14T19:12:52.336Z,99.90
2018-09-14T19:15:19.872Z,99.90
2018-09-14T19:17:46.339Z,99.90
2018-09-14T19:20:14.927Z,99.90
2018-09-14T19:22:41.848Z,99.90
2018-09-14T19:25:08.927Z,99.90
2018-09-14T19:27:35.643Z,99.90
2018-09-14T19:30:02.212Z,99.90
2018-09-14T19:32:29.496Z,99.90
2018-09-14T19:34:56.688Z,99.90
2018-09-14T19:37:25.228Z,99.90
2018-09-14T19:39:52.870Z,99.90
2018-09-14T19:42:19.867Z,99.90
2018-09-14T19:44:49.031Z,99.90
2018-09-14T19:47:15.550Z,99.90
2018-09-14T19:49:42.349Z,99.90
2018-09-14T19:52:08.649Z,99.90
2018-09-14T19:54:35.632Z,99.90
2018-09-14T19:57:04.404Z,99.90
2018-09-14T19:59:41.080Z,99.90
2018-09-14T20:02:07.402Z,99.90
2018-09-14T20:04:33.682Z,99.90
2018-09-14T20:07:00.717Z,99.90
2018-09-14T20:09:27.045Z,99.90
2018-09-14T20:11:53.325Z,99.90
2018-09-14T20:14:19.595Z,99.90
2018-09-14T20:16:46.056Z,99.90
2018-09-14T20:19:13.076Z,99.90
2018-09-14T20:21:41.017Z,99.90
2018-09-14T20:24:07.661Z,99.90
2018-09-14T20:26:34.529Z,99.90
2018-09-14T20:29:02.080Z,99.90
2018-09-14T20:31:28.680Z,99.90
2018-09-14T20:33:57.386Z,99.90
2018-09-14T20:36:25.652Z,99.90
2018-09-14T20:38:52.233Z,99.90
2018-09-14T20:41:19.004Z,99.90
2018-09-14T20:43:47.180Z,99.90
2018-09-14T20:46:13.977Z,99.90
2018-09-14T20:48:42.082Z,99.90
2018-09-14T20:51:10.179Z,99.90
2018-09-14T20:53:37.925Z,99.90
2018-09-14T20:56:05.221Z,99.90
2018-09-14T20:58:34.023Z,99.90
2018-09-14T21:01:01.028Z,99.90
2018-09-14T21:03:31.145Z,99.90
2018-09-14T21:05:57.972Z,99.90
2018-09-14T21:08:27.080Z,99.90
2018-09-14T21:10:54.025Z,99.90
2018-09-14T21:13:25.304Z,99.90
2018-09-14T21:15:52.818Z,99.90
2018-09-14T21:18:20.770Z,99.90
2018-09-14T21:20:48.463Z,99.90
2018-09-14T21:23:15.700Z,99.90
2018-09-14T21:25:43.281Z,99.90
2018-09-14T21:28:10.796Z,99.90
2018-09-14T21:30:38.454Z,99.90
2018-09-14T21:33:05.194Z,99.90
2018-09-14T21:35:32.579Z,99.90
2018-09-14T21:38:00.242Z,99.90
2018-09-14T21:40:27.440Z,99.90
2018-09-14T21:42:55.134Z,99.90
2018-09-14T21:45:23.044Z,99.90
2018-09-14T21:47:50.802Z,99.90
2018-09-14T21:50:17.436Z,99.90
2018-09-14T21:52:44.486Z,99.90
2018-09-14T21:55:11.822Z,99.90
2018-09-14T21:57:39.347Z,99.90
2018-09-14T22:00:06.281Z,99.90
2018-09-14T22:02:33.358Z,99.90
2018-09-14T22:05:00.182Z,99.90
2018-09-14T22:07:26.946Z,99.90
2018-09-14T22:09:55.163Z,99.90
2018-09-14T22:12:22.384Z,99.90
2018-09-14T22:14:49.148Z,99.90
2018-09-14T22:17:16.112Z,99.90
2018-09-14T22:19:43.210Z,99.90
2018-09-14T22:22:11.406Z,99.90
2018-09-14T22:24:38.783Z,99.90
2018-09-14T22:27:05.717Z,99.90
2018-09-14T22:29:32.666Z,99.90
2018-09-14T22:31:59.855Z,99.90
2018-09-14T22:34:27.023Z,99.90
2018-09-14T22:36:54.230Z,99.90
2018-09-14T22:39:20.992Z,99.90
2018-09-14T22:41:48.292Z,99.90
2018-09-14T22:44:15.269Z,99.90
2018-09-14T22:46:42.607Z,99.90
2018-09-14T22:49:09.962Z,99.90
2018-09-14T22:51:37.188Z,99.90
2018-09-14T22:54:04.738Z,99.90
2018-09-14T22:56:32.338Z,99.90
2018-09-14T22:59:00.074Z,99.90
2018-09-14T23:01:27.383Z,99.90
2018-09-14T23:03:54.795Z,99.90
2018-09-14T23:06:22.544Z,99.90
2018-09-14T23:08:49.796Z,99.90
2018-09-14T23:11:18.039Z,99.90
2018-09-14T23:13:45.645Z,99.90
2018-09-14T23:16:12.384Z,99.90
2018-09-14T23:18:39.355Z,99.90
2018-09-14T23:21:07.453Z,99.90
2018-09-14T23:23:35.032Z,99.90
2018-09-14T23:26:01.980Z,99.90
2018-09-14T23:28:29.412Z,99.90
2018-09-14T23:30:56.763Z,99.90
2018-09-14T23:33:24.327Z,99.90
2018-09-14T23:35:51.987Z,99.90
2018-09-14T23:38:19.338Z,99.90
2018-09-14T23:40:46.312Z,99.90
2018-09-14T23:43:13.591Z,99.90
2018-09-14T23:45:40.492Z,99.90
2018-09-14T23:48:07.437Z,99.90
2018-09-14T23:50:34.296Z,99.90
2018-09-14T23:53:01.335Z,99.90
2018-09-14T23:55:28.553Z,99.90
2018-09-14T23:57:56.861Z,99.90
